Aérodrome :
LOGIN :

S'inscrire | Disclaimer

   EN    FR    IT 

 










Légende :    VFR   VFR Marginal   IFR   IFR Intensif   IFR Très Intensif
Visi : 
Plafond : 
>= 8 km
>= 3000ft
5 à 8 km
1000 à 3000 ft
1500m à 5 km
500 à 1000 ft
800 à 1500m
200 à 500 ft
< 800m
< 200 ft
Symboles :   Orages  Brouillard  Fortes neiges  Fortes précipitations  Vent > 20 kt
SIGMETs :   Divers  Orages  Givrage  Turbulence  Onde Orograph.  Cendres Volcan.






- Altitude de l'aérodrome : 538 ft
- Code IATA : TNF


LFPN - Toussus Le Noble

DERNIER METAR :
  • 011600Z AUTO 28012KT 250V310 9999 OVC048 08/03 Q1028 NOSIG

METARs EXPIRÉS :
  • 011530Z AUTO 29010KT 260V320 9999 FEW034 SCT049 BKN150 08/03 Q1028 NOSIG
  • 011500Z AUTO 28012KT 250V310 9999 FEW036 BKN150 OVC170 09/03 Q1028 NOSIG
  • 011430Z AUTO 28009KT 9999 FEW033 BKN043 BKN050 09/03 Q1028 NOSIG
  • 011400Z AUTO 28010KT 250V310 9999 FEW031 BKN038 BKN046 09/03 Q1028 NOSIG
  • 011330Z AUTO 28009KT 9999 SCT033 BKN039 BKN045 09/03 Q1028 NOSIG

TAF TAF LFPN
Valide du 01 à 15h jusqu'au 02 à 00h UTC


011400Z 0115/0124 28010KT 9999 BKN034
ATIS : +33 1 39 56 54 70



MET'MAP, la Météo Aéronautique d'un coup d'oeil ! - Copyright ORBIFLY Décembre 2007 - Disclaimer

ORBIFLY MET'MAP TEAM :

Programmation & Développement : Alexandra Zaïnal
Sur une idée originale de : Baudouin d'Aumeries
Soutien technique & logistique : Manuel Goepfert
Assistance : Marc-Olivier Méhu




SOURCES & CREDITS :

   NOAA